sensor_id;sensor_type;location;lat;lon;timestamp;temperature;humidity
41928;DHT22;27616;51.420;6.788;2022-08-01T00:00:37;20.60;99.90
41928;DHT22;27616;51.420;6.788;2022-08-01T00:03:03;20.60;99.90
41928;DHT22;27616;51.420;6.788;2022-08-01T00:05:29;20.50;99.90
41928;DHT22;27616;51.420;6.788;2022-08-01T00:07:55;20.60;99.90
41928;DHT22;27616;51.420;6.788;2022-08-01T00:10:21;20.50;99.90
41928;DHT22;27616;51.420;6.788;2022-08-01T00:12:47;20.50;99.90
41928;DHT22;27616;51.420;6.788;2022-08-01T00:15:15;20.60;99.90
41928;DHT22;27616;51.420;6.788;2022-08-01T00:17:42;20.50;99.90
41928;DHT22;27616;51.420;6.788;2022-08-01T00:20:10;20.50;99.90
41928;DHT22;27616;51.420;6.788;2022-08-01T00:22:37;20.50;99.90
41928;DHT22;27616;51.420;6.788;2022-08-01T00:25:04;20.50;99.90
41928;DHT22;27616;51.420;6.788;2022-08-01T00:27:30;20.50;99.90
41928;DHT22;27616;51.420;6.788;2022-08-01T00:29:57;20.50;99.90
41928;DHT22;27616;51.420;6.788;2022-08-01T00:32:23;20.50;99.90
41928;DHT22;27616;51.420;6.788;2022-08-01T00:34:48;20.50;99.90
41928;DHT22;27616;51.420;6.788;2022-08-01T00:37:14;20.50;99.90
41928;DHT22;27616;51.420;6.788;2022-08-01T00:39:40;20.50;99.90
41928;DHT22;27616;51.420;6.788;2022-08-01T00:42:07;20.50;99.90
41928;DHT22;27616;51.420;6.788;2022-08-01T00:44:34;20.50;99.90
41928;DHT22;27616;51.420;6.788;2022-08-01T00:47:00;20.50;99.90
41928;DHT22;27616;51.420;6.788;2022-08-01T00:49:27;20.50;99.90
41928;DHT22;27616;51.420;6.788;2022-08-01T00:51:53;20.50;99.90
41928;DHT22;27616;51.420;6.788;2022-08-01T00:54:19;20.50;99.90
41928;DHT22;27616;51.420;6.788;2022-08-01T00:56:45;20.50;99.90
41928;DHT22;27616;51.420;6.788;2022-08-01T00:59:12;20.50;99.90
41928;DHT22;27616;51.420;6.788;2022-08-01T01:01:39;20.40;99.90
41928;DHT22;27616;51.420;6.788;2022-08-01T01:04:04;20.40;99.90
41928;DHT22;27616;51.420;6.788;2022-08-01T01:12:21;20.40;99.90
41928;DHT22;27616;51.420;6.788;2022-08-01T01:17:41;20.40;99.90
41928;DHT22;27616;51.420;6.788;2022-08-01T01:20:13;20.40;99.90
41928;DHT22;27616;51.420;6.788;2022-08-01T01:23:01;20.40;99.90
41928;DHT22;27616;51.420;6.788;2022-08-01T01:28:15;20.40;99.90
41928;DHT22;27616;51.420;6.788;2022-08-01T01:30:45;20.40;99.90
41928;DHT22;27616;51.420;6.788;2022-08-01T01:33:12;20.40;99.90
41928;DHT22;27616;51.420;6.788;2022-08-01T01:35:44;20.30;99.90
41928;DHT22;27616;51.420;6.788;2022-08-01T01:38:20;20.30;99.90
41928;DHT22;27616;51.420;6.788;2022-08-01T01:40:47;20.30;99.90
41928;DHT22;27616;51.420;6.788;2022-08-01T01:43:14;20.30;99.90
41928;DHT22;27616;51.420;6.788;2022-08-01T01:45:42;20.30;99.90
41928;DHT22;27616;51.420;6.788;2022-08-01T01:48:09;20.30;99.90
41928;DHT22;27616;51.420;6.788;2022-08-01T01:50:36;20.30;99.90
41928;DHT22;27616;51.420;6.788;2022-08-01T01:53:04;20.30;99.90
41928;DHT22;27616;51.420;6.788;2022-08-01T01:55:31;20.30;99.90
41928;DHT22;27616;51.420;6.788;2022-08-01T01:57:59;20.20;99.90
41928;DHT22;27616;51.420;6.788;2022-08-01T02:00:25;20.30;99.90
41928;DHT22;27616;51.420;6.788;2022-08-01T02:02:54;20.30;99.90
41928;DHT22;27616;51.420;6.788;2022-08-01T02:05:22;20.30;99.90
41928;DHT22;27616;51.420;6.788;2022-08-01T02:07:50;20.30;99.90
41928;DHT22;27616;51.420;6.788;2022-08-01T02:10:17;20.30;99.90
41928;DHT22;27616;51.420;6.788;2022-08-01T02:12:44;20.30;99.90
41928;DHT22;27616;51.420;6.788;2022-08-01T02:15:12;20.30;99.90
41928;DHT22;27616;51.420;6.788;2022-08-01T02:17:44;20.30;99.90
41928;DHT22;27616;51.420;6.788;2022-08-01T02:20:12;20.30;99.90
41928;DHT22;27616;51.420;6.788;2022-08-01T02:22:53;20.30;99.90
41928;DHT22;27616;51.420;6.788;2022-08-01T02:25:25;20.30;99.90
41928;DHT22;27616;51.420;6.788;2022-08-01T02:28:15;20.30;99.90
41928;DHT22;27616;51.420;6.788;2022-08-01T02:30:43;20.30;99.90
41928;DHT22;27616;51.420;6.788;2022-08-01T02:33:27;20.30;99.90
41928;DHT22;27616;51.420;6.788;2022-08-01T02:35:58;20.30;99.90
41928;DHT22;27616;51.420;6.788;2022-08-01T02:38:27;20.30;99.90
41928;DHT22;27616;51.420;6.788;2022-08-01T02:40:54;20.30;99.90
41928;DHT22;27616;51.420;6.788;2022-08-01T02:43:25;20.30;99.90
41928;DHT22;27616;51.420;6.788;2022-08-01T02:45:56;20.30;99.90
41928;DHT22;27616;51.420;6.788;2022-08-01T02:48:24;20.30;99.90
41928;DHT22;27616;51.420;6.788;2022-08-01T02:50:54;20.30;99.90
41928;DHT22;27616;51.420;6.788;2022-08-01T02:53:22;20.30;99.90
41928;DHT22;27616;51.420;6.788;2022-08-01T02:55:49;20.30;99.90
41928;DHT22;27616;51.420;6.788;2022-08-01T02:58:18;20.30;99.90
41928;DHT22;27616;51.420;6.788;2022-08-01T03:00:46;20.30;99.90
41928;DHT22;27616;51.420;6.788;2022-08-01T03:03:13;20.30;99.90
41928;DHT22;27616;51.420;6.788;2022-08-01T03:05:39;20.30;99.90
41928;DHT22;27616;51.420;6.788;2022-08-01T03:08:07;20.30;99.90
41928;DHT22;27616;51.420;6.788;2022-08-01T03:10:36;20.30;99.90
41928;DHT22;27616;51.420;6.788;2022-08-01T03:13:03;20.30;99.90
41928;DHT22;27616;51.420;6.788;2022-08-01T03:15:32;20.30;99.90
41928;DHT22;27616;51.420;6.788;2022-08-01T03:17:59;20.30;99.90
41928;DHT22;27616;51.420;6.788;2022-08-01T03:20:27;20.30;99.90
41928;DHT22;27616;51.420;6.788;2022-08-01T03:22:55;20.30;99.90
41928;DHT22;27616;51.420;6.788;2022-08-01T03:25:22;20.30;99.90
41928;DHT22;27616;51.420;6.788;2022-08-01T03:27:54;20.30;99.90
41928;DHT22;27616;51.420;6.788;2022-08-01T03:30:22;20.30;99.90
41928;DHT22;27616;51.420;6.788;2022-08-01T03:32:49;20.30;99.90
41928;DHT22;27616;51.420;6.788;2022-08-01T03:35:14;20.30;99.90
41928;DHT22;27616;51.420;6.788;2022-08-01T03:37:48;20.30;99.90
41928;DHT22;27616;51.420;6.788;2022-08-01T03:42:52;20.30;99.90
41928;DHT22;27616;51.420;6.788;2022-08-01T03:45:22;20.20;99.90
41928;DHT22;27616;51.420;6.788;2022-08-01T03:47:52;20.20;99.90
41928;DHT22;27616;51.420;6.788;2022-08-01T03:50:21;20.20;99.90
41928;DHT22;27616;51.420;6.788;2022-08-01T03:52:49;20.20;99.90
41928;DHT22;27616;51.420;6.788;2022-08-01T03:55:16;20.20;99.90
41928;DHT22;27616;51.420;6.788;2022-08-01T03:57:45;20.20;99.90
41928;DHT22;27616;51.420;6.788;2022-08-01T04:00:12;20.20;99.90
41928;DHT22;27616;51.420;6.788;2022-08-01T04:02:38;20.20;99.90
41928;DHT22;27616;51.420;6.788;2022-08-01T04:05:04;20.20;99.90
41928;DHT22;27616;51.420;6.788;2022-08-01T04:07:31;20.20;99.90
41928;DHT22;27616;51.420;6.788;2022-08-01T04:09:57;20.20;99.90
41928;DHT22;27616;51.420;6.788;2022-08-01T04:12:23;20.20;99.90
41928;DHT22;27616;51.420;6.788;2022-08-01T04:14:49;20.20;99.90
41928;DHT22;27616;51.420;6.788;2022-08-01T04:17:18;20.20;99.90
41928;DHT22;27616;51.420;6.788;2022-08-01T04:19:45;20.20;99.90
41928;DHT22;27616;51.420;6.788;2022-08-01T04:22:14;20.20;99.90
41928;DHT22;27616;51.420;6.788;2022-08-01T04:24:41;20.20;99.90
41928;DHT22;27616;51.420;6.788;2022-08-01T04:27:13;20.20;99.90
41928;DHT22;27616;51.420;6.788;2022-08-01T04:29:41;20.30;99.90
41928;DHT22;27616;51.420;6.788;2022-08-01T04:32:09;20.20;99.90
41928;DHT22;27616;51.420;6.788;2022-08-01T04:34:38;20.20;99.90
41928;DHT22;27616;51.420;6.788;2022-08-01T04:37:07;20.20;99.90
41928;DHT22;27616;51.420;6.788;2022-08-01T04:39:34;20.20;99.90
41928;DHT22;27616;51.420;6.788;2022-08-01T04:42:03;20.20;99.90
41928;DHT22;27616;51.420;6.788;2022-08-01T04:44:30;20.20;99.90
41928;DHT22;27616;51.420;6.788;2022-08-01T04:46:59;20.20;99.90
41928;DHT22;27616;51.420;6.788;2022-08-01T04:49:32;20.20;99.90
41928;DHT22;27616;51.420;6.788;2022-08-01T04:51:58;20.20;99.90
41928;DHT22;27616;51.420;6.788;2022-08-01T04:54:29;20.20;99.90
41928;DHT22;27616;51.420;6.788;2022-08-01T04:56:56;20.20;99.90
41928;DHT22;27616;51.420;6.788;2022-08-01T04:59:33;20.20;99.90
41928;DHT22;27616;51.420;6.788;2022-08-01T05:02:11;20.20;99.90
41928;DHT22;27616;51.420;6.788;2022-08-01T05:04:38;20.20;99.90
41928;DHT22;27616;51.420;6.788;2022-08-01T05:07:05;20.20;99.90
41928;DHT22;27616;51.420;6.788;2022-08-01T05:09:31;20.20;99.90
41928;DHT22;27616;51.420;6.788;2022-08-01T05:12:01;20.20;99.90
41928;DHT22;27616;51.420;6.788;2022-08-01T05:14:28;20.20;99.90
41928;DHT22;27616;51.420;6.788;2022-08-01T05:16:54;20.20;99.90
41928;DHT22;27616;51.420;6.788;2022-08-01T05:19:20;20.20;99.90
41928;DHT22;27616;51.420;6.788;2022-08-01T05:21:47;20.20;99.90
41928;DHT22;27616;51.420;6.788;2022-08-01T05:24:12;20.20;99.90
41928;DHT22;27616;51.420;6.788;2022-08-01T05:26:39;20.20;99.90
41928;DHT22;27616;51.420;6.788;2022-08-01T05:29:05;20.20;99.90
41928;DHT22;27616;51.420;6.788;2022-08-01T05:31:31;20.20;99.90
41928;DHT22;27616;51.420;6.788;2022-08-01T05:34:02;20.20;99.90
41928;DHT22;27616;51.420;6.788;2022-08-01T05:36:29;20.20;99.90
41928;DHT22;27616;51.420;6.788;2022-08-01T05:38:55;20.20;99.90
41928;DHT22;27616;51.420;6.788;2022-08-01T05:41:20;20.20;99.90
41928;DHT22;27616;51.420;6.788;2022-08-01T05:43:46;20.10;99.90
41928;DHT22;27616;51.420;6.788;2022-08-01T05:46:12;20.10;99.90
41928;DHT22;27616;51.420;6.788;2022-08-01T05:48:38;20.10;99.90
41928;DHT22;27616;51.420;6.788;2022-08-01T05:51:04;20.10;99.90
41928;DHT22;27616;51.420;6.788;2022-08-01T05:53:30;20.10;99.90
41928;DHT22;27616;51.420;6.788;2022-08-01T05:55:56;20.10;99.90
41928;DHT22;27616;51.420;6.788;2022-08-01T05:58:22;20.10;99.90
41928;DHT22;27616;51.420;6.788;2022-08-01T06:00:48;20.20;99.90
41928;DHT22;27616;51.420;6.788;2022-08-01T06:03:14;20.20;99.90
41928;DHT22;27616;51.420;6.788;2022-08-01T06:05:40;20.20;99.90
41928;DHT22;27616;51.420;6.788;2022-08-01T06:08:06;20.20;99.90
41928;DHT22;27616;51.420;6.788;2022-08-01T06:10:32;20.20;99.90
41928;DHT22;27616;51.420;6.788;2022-08-01T06:12:58;20.30;99.90
41928;DHT22;27616;51.420;6.788;2022-08-01T06:15:25;20.20;99.90
41928;DHT22;27616;51.420;6.788;2022-08-01T06:17:51;20.20;99.90
41928;DHT22;27616;51.420;6.788;2022-08-01T06:20:17;20.30;99.90
41928;DHT22;27616;51.420;6.788;2022-08-01T06:22:42;20.40;99.90
41928;DHT22;27616;51.420;6.788;2022-08-01T06:25:08;20.40;99.90
41928;DHT22;27616;51.420;6.788;2022-08-01T06:27:35;20.40;99.90
41928;DHT22;27616;51.420;6.788;2022-08-01T06:30:01;20.50;99.90
41928;DHT22;27616;51.420;6.788;2022-08-01T06:32:27;20.40;99.90
41928;DHT22;27616;51.420;6.788;2022-08-01T06:34:53;20.40;99.90
41928;DHT22;27616;51.420;6.788;2022-08-01T06:37:19;20.40;99.90
41928;DHT22;27616;51.420;6.788;2022-08-01T06:39:45;20.50;99.90
41928;DHT22;27616;51.420;6.788;2022-08-01T06:42:11;20.50;99.90
41928;DHT22;27616;51.420;6.788;2022-08-01T06:44:37;20.50;99.90
41928;DHT22;27616;51.420;6.788;2022-08-01T06:47:03;20.50;99.90
41928;DHT22;27616;51.420;6.788;2022-08-01T06:49:29;20.60;99.90
41928;DHT22;27616;51.420;6.788;2022-08-01T06:51:54;20.60;99.90
41928;DHT22;27616;51.420;6.788;2022-08-01T06:54:20;20.60;99.90
41928;DHT22;27616;51.420;6.788;2022-08-01T06:56:46;20.60;99.90
41928;DHT22;27616;51.420;6.788;2022-08-01T06:59:12;20.70;99.90
41928;DHT22;27616;51.420;6.788;2022-08-01T07:01:38;20.70;99.90
41928;DHT22;27616;51.420;6.788;2022-08-01T07:04:04;20.80;99.90
41928;DHT22;27616;51.420;6.788;2022-08-01T07:06:31;20.80;99.90
41928;DHT22;27616;51.420;6.788;2022-08-01T07:08:56;20.80;99.90
41928;DHT22;27616;51.420;6.788;2022-08-01T07:11:23;20.90;99.90
41928;DHT22;27616;51.420;6.788;2022-08-01T07:13:49;20.90;99.90
41928;DHT22;27616;51.420;6.788;2022-08-01T07:16:16;20.90;99.90
41928;DHT22;27616;51.420;6.788;2022-08-01T07:18:42;21.00;99.90
41928;DHT22;27616;51.420;6.788;2022-08-01T07:21:09;21.00;99.90
41928;DHT22;27616;51.420;6.788;2022-08-01T07:23:35;21.10;99.90
41928;DHT22;27616;51.420;6.788;2022-08-01T07:26:03;21.10;99.90
41928;DHT22;27616;51.420;6.788;2022-08-01T07:28:30;21.10;99.90
41928;DHT22;27616;51.420;6.788;2022-08-01T07:30:56;21.10;99.90
41928;DHT22;27616;51.420;6.788;2022-08-01T07:33:22;21.10;99.90
41928;DHT22;27616;51.420;6.788;2022-08-01T07:35:48;21.10;99.90
41928;DHT22;27616;51.420;6.788;2022-08-01T07:38:14;21.20;99.90
41928;DHT22;27616;51.420;6.788;2022-08-01T07:40:43;21.30;99.90
41928;DHT22;27616;51.420;6.788;2022-08-01T07:43:09;21.30;99.90
41928;DHT22;27616;51.420;6.788;2022-08-01T07:45:35;21.40;99.90
41928;DHT22;27616;51.420;6.788;2022-08-01T07:48:05;21.40;99.90
41928;DHT22;27616;51.420;6.788;2022-08-01T07:50:32;21.40;99.90
41928;DHT22;27616;51.420;6.788;2022-08-01T07:52:57;21.40;99.90
41928;DHT22;27616;51.420;6.788;2022-08-01T07:55:23;21.40;99.90
41928;DHT22;27616;51.420;6.788;2022-08-01T07:57:49;21.40;99.90
41928;DHT22;27616;51.420;6.788;2022-08-01T08:00:16;21.30;99.90
41928;DHT22;27616;51.420;6.788;2022-08-01T08:02:42;21.20;99.90
41928;DHT22;27616;51.420;6.788;2022-08-01T08:05:08;21.30;99.90
41928;DHT22;27616;51.420;6.788;2022-08-01T08:07:33;21.30;99.90
41928;DHT22;27616;51.420;6.788;2022-08-01T08:10:00;21.30;99.90
41928;DHT22;27616;51.420;6.788;2022-08-01T08:12:26;21.30;99.90
41928;DHT22;27616;51.420;6.788;2022-08-01T08:14:52;21.30;99.90
41928;DHT22;27616;51.420;6.788;2022-08-01T08:17:18;21.30;99.90
41928;DHT22;27616;51.420;6.788;2022-08-01T08:19:43;21.40;99.90
41928;DHT22;27616;51.420;6.788;2022-08-01T08:22:10;21.50;99.90
41928;DHT22;27616;51.420;6.788;2022-08-01T08:24:37;21.50;99.90
41928;DHT22;27616;51.420;6.788;2022-08-01T08:27:03;21.50;99.90
41928;DHT22;27616;51.420;6.788;2022-08-01T08:29:31;21.50;99.90
41928;DHT22;27616;51.420;6.788;2022-08-01T08:31:59;21.50;99.90
41928;DHT22;27616;51.420;6.788;2022-08-01T08:34:26;21.50;99.90
41928;DHT22;27616;51.420;6.788;2022-08-01T08:36:53;21.60;99.90
41928;DHT22;27616;51.420;6.788;2022-08-01T08:39:20;21.60;99.90
41928;DHT22;27616;51.420;6.788;2022-08-01T08:41:47;21.60;99.90
41928;DHT22;27616;51.420;6.788;2022-08-01T08:44:13;21.60;99.90
41928;DHT22;27616;51.420;6.788;2022-08-01T08:46:48;21.70;99.90
41928;DHT22;27616;51.420;6.788;2022-08-01T08:49:20;21.70;99.90
41928;DHT22;27616;51.420;6.788;2022-08-01T08:51:48;21.70;99.90
41928;DHT22;27616;51.420;6.788;2022-08-01T08:54:18;21.70;99.90
41928;DHT22;27616;51.420;6.788;2022-08-01T08:56:46;21.80;99.90
41928;DHT22;27616;51.420;6.788;2022-08-01T08:59:13;21.80;99.90
41928;DHT22;27616;51.420;6.788;2022-08-01T09:01:40;21.80;99.90
41928;DHT22;27616;51.420;6.788;2022-08-01T09:04:06;21.80;99.90
41928;DHT22;27616;51.420;6.788;2022-08-01T09:06:32;21.80;99.90
41928;DHT22;27616;51.420;6.788;2022-08-01T09:08:59;21.80;99.90
41928;DHT22;27616;51.420;6.788;2022-08-01T09:11:25;21.80;99.90
41928;DHT22;27616;51.420;6.788;2022-08-01T09:14:21;21.80;99.90
41928;DHT22;27616;51.420;6.788;2022-08-01T09:17:05;21.80;99.90
41928;DHT22;27616;51.420;6.788;2022-08-01T09:19:40;21.80;99.90
41928;DHT22;27616;51.420;6.788;2022-08-01T09:22:13;21.80;99.90
41928;DHT22;27616;51.420;6.788;2022-08-01T09:24:40;21.90;99.90
41928;DHT22;27616;51.420;6.788;2022-08-01T09:29:42;21.90;99.90
41928;DHT22;27616;51.420;6.788;2022-08-01T09:32:10;22.00;99.90
41928;DHT22;27616;51.420;6.788;2022-08-01T09:34:36;22.00;99.90
41928;DHT22;27616;51.420;6.788;2022-08-01T09:37:03;22.10;99.90
41928;DHT22;27616;51.420;6.788;2022-08-01T09:39:30;22.10;99.90
41928;DHT22;27616;51.420;6.788;2022-08-01T09:41:58;22.20;99.90
41928;DHT22;27616;51.420;6.788;2022-08-01T09:47:04;22.20;99.90
41928;DHT22;27616;51.420;6.788;2022-08-01T09:49:36;22.20;99.90
41928;DHT22;27616;51.420;6.788;2022-08-01T09:54:43;22.30;99.90
41928;DHT22;27616;51.420;6.788;2022-08-01T09:57:17;22.30;99.90
41928;DHT22;27616;51.420;6.788;2022-08-01T09:59:47;22.30;99.90
41928;DHT22;27616;51.420;6.788;2022-08-01T10:02:25;22.30;99.90
41928;DHT22;27616;51.420;6.788;2022-08-01T10:04:52;22.40;99.90
41928;DHT22;27616;51.420;6.788;2022-08-01T10:07:19;22.40;99.90
41928;DHT22;27616;51.420;6.788;2022-08-01T10:09:45;22.60;99.90
41928;DHT22;27616;51.420;6.788;2022-08-01T10:12:14;22.60;99.90
41928;DHT22;27616;51.420;6.788;2022-08-01T10:14:43;22.60;99.90
41928;DHT22;27616;51.420;6.788;2022-08-01T10:17:13;22.80;99.90
41928;DHT22;27616;51.420;6.788;2022-08-01T10:19:41;22.80;99.90
41928;DHT22;27616;51.420;6.788;2022-08-01T10:22:09;22.80;99.90
41928;DHT22;27616;51.420;6.788;2022-08-01T10:24:39;22.70;99.90
41928;DHT22;27616;51.420;6.788;2022-08-01T10:27:07;22.70;99.90
41928;DHT22;27616;51.420;6.788;2022-08-01T10:29:46;22.60;99.90
41928;DHT22;27616;51.420;6.788;2022-08-01T10:32:13;22.60;99.90
41928;DHT22;27616;51.420;6.788;2022-08-01T10:34:41;22.50;99.90
41928;DHT22;27616;51.420;6.788;2022-08-01T10:37:07;22.50;99.90
41928;DHT22;27616;51.420;6.788;2022-08-01T10:39:34;22.50;99.90
41928;DHT22;27616;51.420;6.788;2022-08-01T10:42:00;22.50;99.90
41928;DHT22;27616;51.420;6.788;2022-08-01T10:44:28;22.60;99.90
41928;DHT22;27616;51.420;6.788;2022-08-01T10:47:26;22.60;99.90
41928;DHT22;27616;51.420;6.788;2022-08-01T10:49:57;22.70;99.90
41928;DHT22;27616;51.420;6.788;2022-08-01T10:52:27;22.80;99.90
41928;DHT22;27616;51.420;6.788;2022-08-01T10:55:06;22.80;99.90
41928;DHT22;27616;51.420;6.788;2022-08-01T10:57:43;22.80;99.90
41928;DHT22;27616;51.420;6.788;2022-08-01T11:00:17;22.80;99.90
41928;DHT22;27616;51.420;6.788;2022-08-01T11:03:01;22.80;99.90
41928;DHT22;27616;51.420;6.788;2022-08-01T11:05:34;22.90;99.90
41928;DHT22;27616;51.420;6.788;2022-08-01T11:08:09;22.80;99.90
41928;DHT22;27616;51.420;6.788;2022-08-01T11:10:40;22.70;99.90
41928;DHT22;27616;51.420;6.788;2022-08-01T11:13:08;22.60;99.90
41928;DHT22;27616;51.420;6.788;2022-08-01T11:15:38;22.50;99.90
41928;DHT22;27616;51.420;6.788;2022-08-01T11:20:58;22.30;99.90
41928;DHT22;27616;51.420;6.788;2022-08-01T11:23:26;22.20;99.90
41928;DHT22;27616;51.420;6.788;2022-08-01T11:28:24;22.10;99.90
41928;DHT22;27616;51.420;6.788;2022-08-01T11:41:24;21.90;99.90
41928;DHT22;27616;51.420;6.788;2022-08-01T11:44:05;21.80;99.90
41928;DHT22;27616;51.420;6.788;2022-08-01T11:46:55;21.90;99.90
41928;DHT22;27616;51.420;6.788;2022-08-01T11:49:44;21.90;99.90
41928;DHT22;27616;51.420;6.788;2022-08-01T11:52:13;21.80;99.90
41928;DHT22;27616;51.420;6.788;2022-08-01T11:54:53;21.80;99.90
41928;DHT22;27616;51.420;6.788;2022-08-01T11:57:30;21.90;99.90
41928;DHT22;27616;51.420;6.788;2022-08-01T11:59:59;21.90;99.90
41928;DHT22;27616;51.420;6.788;2022-08-01T12:02:29;21.90;99.90
41928;DHT22;27616;51.420;6.788;2022-08-01T12:07:32;21.80;99.90
41928;DHT22;27616;51.420;6.788;2022-08-01T12:10:05;21.90;99.90
41928;DHT22;27616;51.420;6.788;2022-08-01T12:12:33;22.00;99.90
41928;DHT22;27616;51.420;6.788;2022-08-01T12:15:04;22.00;99.90
41928;DHT22;27616;51.420;6.788;2022-08-01T12:17:36;22.00;99.90
41928;DHT22;27616;51.420;6.788;2022-08-01T12:20:10;22.00;99.90
41928;DHT22;27616;51.420;6.788;2022-08-01T12:22:37;22.00;99.90
41928;DHT22;27616;51.420;6.788;2022-08-01T12:25:12;22.10;99.90
41928;DHT22;27616;51.420;6.788;2022-08-01T12:27:41;22.20;99.90
41928;DHT22;27616;51.420;6.788;2022-08-01T12:30:10;22.10;99.90
41928;DHT22;27616;51.420;6.788;2022-08-01T12:32:38;22.00;99.90
41928;DHT22;27616;51.420;6.788;2022-08-01T12:35:11;22.00;99.90
41928;DHT22;27616;51.420;6.788;2022-08-01T12:37:38;22.00;99.90
41928;DHT22;27616;51.420;6.788;2022-08-01T12:42:41;22.10;99.90
41928;DHT22;27616;51.420;6.788;2022-08-01T12:45:09;22.10;99.90
41928;DHT22;27616;51.420;6.788;2022-08-01T12:47:37;22.10;99.90
41928;DHT22;27616;51.420;6.788;2022-08-01T12:50:06;22.10;99.90
41928;DHT22;27616;51.420;6.788;2022-08-01T12:52:33;22.10;99.90
41928;DHT22;27616;51.420;6.788;2022-08-01T12:55:10;22.20;99.90
41928;DHT22;27616;51.420;6.788;2022-08-01T12:57:38;22.30;99.90
41928;DHT22;27616;51.420;6.788;2022-08-01T13:00:10;22.40;99.90
41928;DHT22;27616;51.420;6.788;2022-08-01T13:02:36;22.30;99.90
41928;DHT22;27616;51.420;6.788;2022-08-01T13:05:06;22.20;99.90
41928;DHT22;27616;51.420;6.788;2022-08-01T13:10:08;22.10;99.90
41928;DHT22;27616;51.420;6.788;2022-08-01T13:12:35;22.10;99.90
41928;DHT22;27616;51.420;6.788;2022-08-01T13:15:16;22.10;99.90
41928;DHT22;27616;51.420;6.788;2022-08-01T13:17:42;22.10;99.90
41928;DHT22;27616;51.420;6.788;2022-08-01T13:20:09;22.20;99.90
41928;DHT22;27616;51.420;6.788;2022-08-01T13:22:36;22.10;99.90
41928;DHT22;27616;51.420;6.788;2022-08-01T13:25:15;22.10;99.90
41928;DHT22;27616;51.420;6.788;2022-08-01T13:27:41;22.20;99.90
41928;DHT22;27616;51.420;6.788;2022-08-01T13:30:15;22.10;99.90
41928;DHT22;27616;51.420;6.788;2022-08-01T13:32:41;22.00;99.90
41928;DHT22;27616;51.420;6.788;2022-08-01T13:35:10;22.00;99.90
41928;DHT22;27616;51.420;6.788;2022-08-01T13:37:38;22.10;99.90
41928;DHT22;27616;51.420;6.788;2022-08-01T13:40:04;22.10;99.90
41928;DHT22;27616;51.420;6.788;2022-08-01T13:42:30;22.20;99.90
41928;DHT22;27616;51.420;6.788;2022-08-01T13:44:57;22.20;99.90
41928;DHT22;27616;51.420;6.788;2022-08-01T13:47:23;22.10;99.90
41928;DHT22;27616;51.420;6.788;2022-08-01T13:49:48;22.10;99.90
41928;DHT22;27616;51.420;6.788;2022-08-01T13:52:14;22.10;99.90
41928;DHT22;27616;51.420;6.788;2022-08-01T13:54:40;22.20;99.90
41928;DHT22;27616;51.420;6.788;2022-08-01T13:57:06;22.20;99.90
41928;DHT22;27616;51.420;6.788;2022-08-01T13:59:32;22.20;99.90
41928;DHT22;27616;51.420;6.788;2022-08-01T14:01:58;22.10;99.90
41928;DHT22;27616;51.420;6.788;2022-08-01T14:04:23;22.20;99.90
41928;DHT22;27616;51.420;6.788;2022-08-01T14:06:49;22.20;99.90
41928;DHT22;27616;51.420;6.788;2022-08-01T14:09:15;22.10;99.90
41928;DHT22;27616;51.420;6.788;2022-08-01T14:11:43;22.10;99.90
41928;DHT22;27616;51.420;6.788;2022-08-01T14:14:09;22.10;99.90
41928;DHT22;27616;51.420;6.788;2022-08-01T14:16:34;22.10;99.90
41928;DHT22;27616;51.420;6.788;2022-08-01T14:19:03;22.10;99.90
41928;DHT22;27616;51.420;6.788;2022-08-01T14:21:29;22.10;99.90
41928;DHT22;27616;51.420;6.788;2022-08-01T14:23:54;22.10;99.90
41928;DHT22;27616;51.420;6.788;2022-08-01T14:26:20;22.10;99.90
41928;DHT22;27616;51.420;6.788;2022-08-01T14:28:46;22.10;99.90
41928;DHT22;27616;51.420;6.788;2022-08-01T14:31:11;22.20;99.90
41928;DHT22;27616;51.420;6.788;2022-08-01T14:33:37;22.20;99.90
41928;DHT22;27616;51.420;6.788;2022-08-01T14:36:04;22.20;99.90
41928;DHT22;27616;51.420;6.788;2022-08-01T14:38:30;22.20;99.90
41928;DHT22;27616;51.420;6.788;2022-08-01T14:40:55;22.30;99.90
41928;DHT22;27616;51.420;6.788;2022-08-01T14:43:21;22.40;99.90
41928;DHT22;27616;51.420;6.788;2022-08-01T14:45:47;22.60;99.90
41928;DHT22;27616;51.420;6.788;2022-08-01T14:48:17;22.60;99.90
41928;DHT22;27616;51.420;6.788;2022-08-01T14:50:43;22.70;99.90
41928;DHT22;27616;51.420;6.788;2022-08-01T14:53:09;22.70;99.90
41928;DHT22;27616;51.420;6.788;2022-08-01T14:55:35;22.60;99.90
41928;DHT22;27616;51.420;6.788;2022-08-01T14:58:00;22.70;99.90
41928;DHT22;27616;51.420;6.788;2022-08-01T15:00:26;22.80;99.90
41928;DHT22;27616;51.420;6.788;2022-08-01T15:02:52;22.80;99.90
41928;DHT22;27616;51.420;6.788;2022-08-01T15:05:18;22.90;99.90
41928;DHT22;27616;51.420;6.788;2022-08-01T15:07:43;23.10;99.90
41928;DHT22;27616;51.420;6.788;2022-08-01T15:10:09;23.20;99.90
41928;DHT22;27616;51.420;6.788;2022-08-01T15:12:35;23.20;99.90
41928;DHT22;27616;51.420;6.788;2022-08-01T15:15:01;23.20;99.90
41928;DHT22;27616;51.420;6.788;2022-08-01T15:17:29;23.30;99.90
41928;DHT22;27616;51.420;6.788;2022-08-01T15:19:58;23.30;99.90
41928;DHT22;27616;51.420;6.788;2022-08-01T15:22:25;23.30;99.90
41928;DHT22;27616;51.420;6.788;2022-08-01T15:24:53;23.30;99.90
41928;DHT22;27616;51.420;6.788;2022-08-01T15:27:19;23.30;99.90
41928;DHT22;27616;51.420;6.788;2022-08-01T15:29:47;23.20;99.80
41928;DHT22;27616;51.420;6.788;2022-08-01T15:32:13;23.30;98.90
41928;DHT22;27616;51.420;6.788;2022-08-01T15:34:40;23.30;99.60
41928;DHT22;27616;51.420;6.788;2022-08-01T15:37:06;23.40;97.80
41928;DHT22;27616;51.420;6.788;2022-08-01T15:39:32;23.40;97.80
41928;DHT22;27616;51.420;6.788;2022-08-01T15:41:59;23.30;99.90
41928;DHT22;27616;51.420;6.788;2022-08-01T15:44:25;23.20;98.70
41928;DHT22;27616;51.420;6.788;2022-08-01T15:46:51;23.10;98.80
41928;DHT22;27616;51.420;6.788;2022-08-01T15:49:17;23.10;99.90
41928;DHT22;27616;51.420;6.788;2022-08-01T15:51:44;23.00;99.90
41928;DHT22;27616;51.420;6.788;2022-08-01T15:54:10;22.90;99.90
41928;DHT22;27616;51.420;6.788;2022-08-01T15:56:36;22.90;99.90
41928;DHT22;27616;51.420;6.788;2022-08-01T15:59:03;23.00;98.40
41928;DHT22;27616;51.420;6.788;2022-08-01T16:01:29;23.00;98.30
41928;DHT22;27616;51.420;6.788;2022-08-01T16:03:55;23.10;99.40
41928;DHT22;27616;51.420;6.788;2022-08-01T16:06:22;23.00;98.80
41928;DHT22;27616;51.420;6.788;2022-08-01T16:08:48;22.90;98.30
41928;DHT22;27616;51.420;6.788;2022-08-01T16:11:14;22.80;99.90
41928;DHT22;27616;51.420;6.788;2022-08-01T16:13:40;22.70;99.30
41928;DHT22;27616;51.420;6.788;2022-08-01T16:16:07;22.70;98.70
41928;DHT22;27616;51.420;6.788;2022-08-01T16:18:33;22.70;98.20
41928;DHT22;27616;51.420;6.788;2022-08-01T16:20:59;22.70;99.00